sensor_id;sensor_type;location;lat;lon;timestamp;pressure;altitude;pressure_sealevel;temperature;humidity
9059;BME280;4564;42.034;25.834;2023-05-03T00:00:04;100826.56;;;10.33;84.53
9059;BME280;4564;42.034;25.834;2023-05-03T00:02:32;100835.06;;;10.30;84.02
9059;BME280;4564;42.034;25.834;2023-05-03T00:04:59;100824.91;;;10.24;84.18
9059;BME280;4564;42.034;25.834;2023-05-03T00:07:27;100833.69;;;10.26;83.33
9059;BME280;4564;42.034;25.834;2023-05-03T00:09:54;100819.63;;;10.15;83.71
9059;BME280;4564;42.034;25.834;2023-05-03T00:12:20;100821.81;;;10.11;82.96
9059;BME280;4564;42.034;25.834;2023-05-03T00:14:47;100825.91;;;10.07;82.86
9059;BME280;4564;42.034;25.834;2023-05-03T00:17:13;100825.06;;;10.06;82.64
9059;BME280;4564;42.034;25.834;2023-05-03T00:19:40;100820.84;;;10.04;82.83
9059;BME280;4564;42.034;25.834;2023-05-03T00:22:07;100826.06;;;10.05;83.05
9059;BME280;4564;42.034;25.834;2023-05-03T00:24:35;100831.31;;;10.07;83.30
9059;BME280;4564;42.034;25.834;2023-05-03T00:27:02;100829.28;;;10.01;83.49
9059;BME280;4564;42.034;25.834;2023-05-03T00:29:29;100822.53;;;9.97;83.12
9059;BME280;4564;42.034;25.834;2023-05-03T00:31:55;100829.28;;;10.01;83.08
9059;BME280;4564;42.034;25.834;2023-05-03T00:34:22;100836.91;;;10.05;82.46
9059;BME280;4564;42.034;25.834;2023-05-03T00:36:49;100834.72;;;10.01;81.71
9059;BME280;4564;42.034;25.834;2023-05-03T00:39:15;100835.03;;;10.06;81.81
9059;BME280;4564;42.034;25.834;2023-05-03T00:41:43;100840.31;;;10.07;80.46
9059;BME280;4564;42.034;25.834;2023-05-03T00:44:10;100834.03;;;9.99;80.89
9059;BME280;4564;42.034;25.834;2023-05-03T00:46:36;100836.25;;;10.03;80.96
9059;BME280;4564;42.034;25.834;2023-05-03T00:49:03;100823.03;;;10.00;80.60
9059;BME280;4564;42.034;25.834;2023-05-03T00:51:29;100832.00;;;10.01;80.65
9059;BME280;4564;42.034;25.834;2023-05-03T00:53:57;100833.00;;;10.00;80.90
9059;BME280;4564;42.034;25.834;2023-05-03T00:56:24;100825.91;;;10.07;80.57
9059;BME280;4564;42.034;25.834;2023-05-03T00:58:52;100828.63;;;10.07;80.51
9059;BME280;4564;42.034;25.834;2023-05-03T01:01:19;100834.88;;;10.07;80.32
9059;BME280;4564;42.034;25.834;2023-05-03T01:03:46;100840.63;;;10.04;80.59
9059;BME280;4564;42.034;25.834;2023-05-03T01:06:17;100843.03;;;10.07;80.31
9059;BME280;4564;42.034;25.834;2023-05-03T01:08:49;100831.69;;;10.04;80.41
9059;BME280;4564;42.034;25.834;2023-05-03T01:11:20;100830.81;;;9.79;80.67
9059;BME280;4564;42.034;25.834;2023-05-03T01:13:51;100830.66;;;9.89;81.14
9059;BME280;4564;42.034;25.834;2023-05-03T01:16:23;100831.66;;;9.96;80.44
9059;BME280;4564;42.034;25.834;2023-05-03T01:18:52;100834.75;;;9.93;80.08
9059;BME280;4564;42.034;25.834;2023-05-03T01:21:22;100837.09;;;9.96;80.74
9059;BME280;4564;42.034;25.834;2023-05-03T01:23:53;100825.56;;;10.02;80.41
9059;BME280;4564;42.034;25.834;2023-05-03T01:26:22;100821.31;;;10.16;79.84
9059;BME280;4564;42.034;25.834;2023-05-03T01:28:49;100818.31;;;10.19;78.64
9059;BME280;4564;42.034;25.834;2023-05-03T01:31:18;100811.88;;;10.20;79.14
9059;BME280;4564;42.034;25.834;2023-05-03T01:33:48;100810.31;;;10.17;78.39
9059;BME280;4564;42.034;25.834;2023-05-03T01:36:19;100802.19;;;10.17;78.63
9059;BME280;4564;42.034;25.834;2023-05-03T01:38:48;100805.22;;;10.14;78.54
9059;BME280;4564;42.034;25.834;2023-05-03T01:41:15;100798.47;;;10.18;79.42
9059;BME280;4564;42.034;25.834;2023-05-03T01:43:43;100792.69;;;10.21;79.20
9059;BME280;4564;42.034;25.834;2023-05-03T01:46:11;100791.19;;;10.19;79.43
9059;BME280;4564;42.034;25.834;2023-05-03T01:48:38;100794.19;;;10.16;80.08
9059;BME280;4564;42.034;25.834;2023-05-03T01:51:04;100793.34;;;10.15;80.90
9059;BME280;4564;42.034;25.834;2023-05-03T01:53:31;100804.53;;;10.12;80.95
9059;BME280;4564;42.034;25.834;2023-05-03T01:55:57;100804.22;;;10.07;80.59
9059;BME280;4564;42.034;25.834;2023-05-03T01:58:24;100796.06;;;10.07;81.08
9059;BME280;4564;42.034;25.834;2023-05-03T02:00:52;100806.56;;;10.10;81.57
9059;BME280;4564;42.034;25.834;2023-05-03T02:03:18;100796.06;;;10.07;81.43
9059;BME280;4564;42.034;25.834;2023-05-03T02:05:46;100802.84;;;10.11;81.44
9059;BME280;4564;42.034;25.834;2023-05-03T02:08:13;100787.28;;;9.97;81.13
9059;BME280;4564;42.034;25.834;2023-05-03T02:10:42;100779.66;;;9.92;81.64
9059;BME280;4564;42.034;25.834;2023-05-03T02:13:09;100775.91;;;9.93;82.16
9059;BME280;4564;42.034;25.834;2023-05-03T02:15:36;100783.38;;;9.99;82.15
9059;BME280;4564;42.034;25.834;2023-05-03T02:18:04;100789.31;;;10.03;82.09
9059;BME280;4564;42.034;25.834;2023-05-03T02:20:30;100791.81;;;10.04;82.15
9059;BME280;4564;42.034;25.834;2023-05-03T02:23:01;100804.69;;;10.10;82.33
9059;BME280;4564;42.034;25.834;2023-05-03T02:25:28;100809.81;;;10.14;82.16
9059;BME280;4564;42.034;25.834;2023-05-03T02:27:54;100797.56;;;10.09;82.43
9059;BME280;4564;42.034;25.834;2023-05-03T02:30:21;100790.81;;;10.14;81.93
9059;BME280;4564;42.034;25.834;2023-05-03T02:32:48;100794.75;;;10.19;80.68
9059;BME280;4564;42.034;25.834;2023-05-03T02:35:16;100800.28;;;10.09;80.96
9059;BME280;4564;42.034;25.834;2023-05-03T02:37:42;100804.53;;;10.12;81.43
9059;BME280;4564;42.034;25.834;2023-05-03T02:40:09;100801.19;;;10.18;81.09
9059;BME280;4564;42.034;25.834;2023-05-03T02:42:36;100803.88;;;10.18;80.75
9059;BME280;4564;42.034;25.834;2023-05-03T02:45:03;100804.91;;;10.25;80.67
9059;BME280;4564;42.034;25.834;2023-05-03T02:47:29;100817.41;;;10.26;80.33
9059;BME280;4564;42.034;25.834;2023-05-03T02:49:56;100811.66;;;10.29;80.44
9059;BME280;4564;42.034;25.834;2023-05-03T02:52:24;100808.78;;;10.31;80.37
9059;BME280;4564;42.034;25.834;2023-05-03T02:54:51;100808.22;;;10.43;80.05
9059;BME280;4564;42.034;25.834;2023-05-03T02:57:17;100808.75;;;10.47;79.99
9059;BME280;4564;42.034;25.834;2023-05-03T02:59:44;100820.41;;;10.47;80.47
9059;BME280;4564;42.034;25.834;2023-05-03T03:02:11;100818.75;;;10.46;80.37
9059;BME280;4564;42.034;25.834;2023-05-03T03:04:37;100812.63;;;10.44;80.43
9059;BME280;4564;42.034;25.834;2023-05-03T03:07:04;100814.31;;;10.53;80.15
9059;BME280;4564;42.034;25.834;2023-05-03T03:09:32;100823.81;;;10.49;79.89
9059;BME280;4564;42.034;25.834;2023-05-03T03:11:59;100820.97;;;10.27;80.37
9059;BME280;4564;42.034;25.834;2023-05-03T03:14:27;100817.75;;;10.15;81.15
9059;BME280;4564;42.034;25.834;2023-05-03T03:16:53;100822.19;;;10.16;81.71
9059;BME280;4564;42.034;25.834;2023-05-03T03:19:20;100823.38;;;10.22;81.76
9059;BME280;4564;42.034;25.834;2023-05-03T03:21:46;100823.88;;;10.17;82.29
9059;BME280;4564;42.034;25.834;2023-05-03T03:24:13;100831.31;;;10.15;83.25
9059;BME280;4564;42.034;25.834;2023-05-03T03:26:41;100825.59;;;10.18;83.46
9059;BME280;4564;42.034;25.834;2023-05-03T03:29:07;100821.84;;;10.19;83.43
9059;BME280;4564;42.034;25.834;2023-05-03T03:31:35;100818.13;;;10.20;82.78
9059;BME280;4564;42.034;25.834;2023-05-03T03:34:01;100810.31;;;10.25;82.74
9059;BME280;4564;42.034;25.834;2023-05-03T03:36:28;100820.66;;;10.30;82.95
9059;BME280;4564;42.034;25.834;2023-05-03T03:38:55;100810.28;;;10.33;84.02
9059;BME280;4564;42.034;25.834;2023-05-03T03:41:21;100803.50;;;10.37;83.61
9059;BME280;4564;42.034;25.834;2023-05-03T03:43:49;100806.22;;;10.37;83.36
9059;BME280;4564;42.034;25.834;2023-05-03T03:46:16;100816.53;;;10.42;83.49
9059;BME280;4564;42.034;25.834;2023-05-03T03:48:42;100810.63;;;10.46;83.97
9059;BME280;4564;42.034;25.834;2023-05-03T03:51:09;100812.97;;;10.49;83.70
9059;BME280;4564;42.034;25.834;2023-05-03T03:53:36;100821.91;;;10.58;83.29
9059;BME280;4564;42.034;25.834;2023-05-03T03:56:03;100830.25;;;10.57;83.08
9059;BME280;4564;42.034;25.834;2023-05-03T03:58:30;100816.84;;;10.55;83.53
9059;BME280;4564;42.034;25.834;2023-05-03T04:00:58;100800.56;;;10.55;84.14
9059;BME280;4564;42.034;25.834;2023-05-03T04:03:25;100844.31;;;10.68;83.94
9059;BME280;4564;42.034;25.834;2023-05-03T04:05:52;100837.66;;;10.71;83.76
9059;BME280;4564;42.034;25.834;2023-05-03T04:08:19;100837.97;;;10.76;83.37
9059;BME280;4564;42.034;25.834;2023-05-03T04:10:45;100850.53;;;10.77;83.65
9059;BME280;4564;42.034;25.834;2023-05-03T04:13:12;100865.13;;;10.84;85.19
9059;BME280;4564;42.034;25.834;2023-05-03T04:15:38;100886.84;;;10.84;85.54
9059;BME280;4564;42.034;25.834;2023-05-03T04:18:06;100908.72;;;10.82;85.21
9059;BME280;4564;42.034;25.834;2023-05-03T04:20:33;100931.16;;;10.68;85.86
9059;BME280;4564;42.034;25.834;2023-05-03T04:22:59;100942.50;;;10.72;86.43
9059;BME280;4564;42.034;25.834;2023-05-03T04:25:26;100966.09;;;10.79;87.10
9059;BME280;4564;42.034;25.834;2023-05-03T04:27:55;100963.19;;;10.89;87.39
9059;BME280;4564;42.034;25.834;2023-05-03T04:30:22;100960.75;;;11.02;88.22
9059;BME280;4564;42.034;25.834;2023-05-03T04:32:49;100927.88;;;10.89;88.76
9059;BME280;4564;42.034;25.834;2023-05-03T04:35:19;100956.66;;;11.14;89.28
9059;BME280;4564;42.034;25.834;2023-05-03T04:37:46;100959.75;;;11.03;89.92
9059;BME280;4564;42.034;25.834;2023-05-03T04:40:13;100944.28;;;11.12;90.30
9059;BME280;4564;42.034;25.834;2023-05-03T04:42:41;100929.88;;;11.11;90.09
9059;BME280;4564;42.034;25.834;2023-05-03T04:45:08;100907.75;;;11.22;89.91
9059;BME280;4564;42.034;25.834;2023-05-03T04:47:35;100886.66;;;11.24;90.41
9059;BME280;4564;42.034;25.834;2023-05-03T04:50:01;100894.41;;;11.35;89.57
9059;BME280;4564;42.034;25.834;2023-05-03T04:52:29;100916.22;;;11.27;89.84
9059;BME280;4564;42.034;25.834;2023-05-03T04:54:56;100904.97;;;11.30;90.78
9059;BME280;4564;42.034;25.834;2023-05-03T04:57:22;100916.22;;;11.27;90.76
9059;BME280;4564;42.034;25.834;2023-05-03T04:59:50;100924.22;;;11.21;90.64
9059;BME280;4564;42.034;25.834;2023-05-03T05:02:18;100926.13;;;11.04;92.42
9059;BME280;4564;42.034;25.834;2023-05-03T05:04:45;100912.50;;;11.12;92.77
9059;BME280;4564;42.034;25.834;2023-05-03T05:07:12;100904.66;;;11.25;93.19
9059;BME280;4564;42.034;25.834;2023-05-03T05:09:40;100900.38;;;11.31;91.93
9059;BME280;4564;42.034;25.834;2023-05-03T05:12:06;100912.97;;;11.24;92.58
9059;BME280;4564;42.034;25.834;2023-05-03T05:14:33;100906.69;;;11.31;92.15
9059;BME280;4564;42.034;25.834;2023-05-03T05:16:59;100907.34;;;11.33;91.93
9059;BME280;4564;42.034;25.834;2023-05-03T05:19:26;100907.84;;;11.37;92.21
9059;BME280;4564;42.034;25.834;2023-05-03T05:21:53;100918.22;;;11.33;92.69
9059;BME280;4564;42.034;25.834;2023-05-03T05:24:19;100927.34;;;11.41;93.51
9059;BME280;4564;42.034;25.834;2023-05-03T05:26:47;100934.00;;;11.38;93.39
9059;BME280;4564;42.034;25.834;2023-05-03T05:29:14;100936.88;;;11.36;94.50
9059;BME280;4564;42.034;25.834;2023-05-03T05:31:40;100947.06;;;11.34;95.16
9059;BME280;4564;42.034;25.834;2023-05-03T05:34:07;100950.31;;;11.38;94.89
9059;BME280;4564;42.034;25.834;2023-05-03T05:36:34;100939.75;;;11.43;95.10
9059;BME280;4564;42.034;25.834;2023-05-03T05:39:00;100946.03;;;11.44;94.57
9059;BME280;4564;42.034;25.834;2023-05-03T05:41:28;100932.69;;;11.57;94.58
9059;BME280;4564;42.034;25.834;2023-05-03T05:43:56;100961.63;;;11.50;94.41
9059;BME280;4564;42.034;25.834;2023-05-03T05:46:23;100973.84;;;11.54;95.57
9059;BME280;4564;42.034;25.834;2023-05-03T05:48:50;100979.00;;;11.80;95.05
9059;BME280;4564;42.034;25.834;2023-05-03T05:51:17;100971.94;;;11.93;94.60
9059;BME280;4564;42.034;25.834;2023-05-03T05:53:44;100987.84;;;12.04;93.20
9059;BME280;4564;42.034;25.834;2023-05-03T05:56:11;100983.78;;;12.08;93.21
9059;BME280;4564;42.034;25.834;2023-05-03T05:58:37;100972.94;;;12.23;93.15
9059;BME280;4564;42.034;25.834;2023-05-03T06:01:05;100957.81;;;12.20;91.99
9059;BME280;4564;42.034;25.834;2023-05-03T06:03:32;100951.38;;;12.36;91.59
9059;BME280;4564;42.034;25.834;2023-05-03T06:05:59;100942.69;;;12.41;90.84
9059;BME280;4564;42.034;25.834;2023-05-03T06:08:26;100948.72;;;12.51;90.32
9059;BME280;4564;42.034;25.834;2023-05-03T06:10:52;100958.09;;;12.48;91.49
9059;BME280;4564;42.034;25.834;2023-05-03T06:13:19;100955.25;;;12.42;91.91
9059;BME280;4564;42.034;25.834;2023-05-03T06:15:46;100945.00;;;12.52;91.77
9059;BME280;4564;42.034;25.834;2023-05-03T06:18:14;100943.13;;;12.67;90.88
9059;BME280;4564;42.034;25.834;2023-05-03T06:20:40;100950.28;;;12.68;90.67
9059;BME280;4564;42.034;25.834;2023-05-03T06:23:07;100961.53;;;12.65;90.87
9059;BME280;4564;42.034;25.834;2023-05-03T06:25:34;100977.41;;;12.76;90.98
9059;BME280;4564;42.034;25.834;2023-05-03T06:28:02;100986.41;;;12.99;91.47
9059;BME280;4564;42.034;25.834;2023-05-03T06:30:29;100975.06;;;13.25;92.12
9059;BME280;4564;42.034;25.834;2023-05-03T06:32:55;100964.69;;;13.65;87.46
9059;BME280;4564;42.034;25.834;2023-05-03T06:35:23;100960.81;;;14.31;85.89
9059;BME280;4564;42.034;25.834;2023-05-03T06:37:51;100975.41;;;14.87;80.21
9059;BME280;4564;42.034;25.834;2023-05-03T06:40:18;100984.66;;;15.14;78.21
9059;BME280;4564;42.034;25.834;2023-05-03T06:42:44;100964.97;;;14.97;78.00
9059;BME280;4564;42.034;25.834;2023-05-03T06:45:11;100959.22;;;14.86;78.80
9059;BME280;4564;42.034;25.834;2023-05-03T06:47:38;100962.75;;;14.58;79.59
9059;BME280;4564;42.034;25.834;2023-05-03T06:50:07;100948.28;;;14.86;79.67
9059;BME280;4564;42.034;25.834;2023-05-03T06:52:35;100942.06;;;14.98;79.22
9059;BME280;4564;42.034;25.834;2023-05-03T06:55:01;100948.13;;;15.22;77.62
9059;BME280;4564;42.034;25.834;2023-05-03T06:57:28;100944.44;;;15.42;77.50
9059;BME280;4564;42.034;25.834;2023-05-03T06:59:55;100952.59;;;15.70;77.15
9059;BME280;4564;42.034;25.834;2023-05-03T07:02:22;100940.50;;;16.12;74.24
9059;BME280;4564;42.034;25.834;2023-05-03T07:04:49;100929.97;;;16.22;73.04
9059;BME280;4564;42.034;25.834;2023-05-03T07:07:16;100923.22;;;16.25;72.34
9059;BME280;4564;42.034;25.834;2023-05-03T07:09:44;100926.03;;;16.71;71.42
9059;BME280;4564;42.034;25.834;2023-05-03T07:12:11;100919.97;;;18.29;67.26
9059;BME280;4564;42.034;25.834;2023-05-03T07:14:37;100906.78;;;19.48;60.66
9059;BME280;4564;42.034;25.834;2023-05-03T07:17:04;100912.69;;;20.53;58.15
9059;BME280;4564;42.034;25.834;2023-05-03T07:19:31;100907.53;;;21.50;54.08
9059;BME280;4564;42.034;25.834;2023-05-03T07:21:58;100918.03;;;22.33;50.88
9059;BME280;4564;42.034;25.834;2023-05-03T07:24:25;100913.97;;;22.07;49.59
9059;BME280;4564;42.034;25.834;2023-05-03T07:26:53;100924.16;;;21.78;51.21
9059;BME280;4564;42.034;25.834;2023-05-03T07:29:20;100925.47;;;22.77;48.83
9059;BME280;4564;42.034;25.834;2023-05-03T07:31:46;100918.38;;;23.58;44.85
9059;BME280;4564;42.034;25.834;2023-05-03T07:34:13;100911.31;;;24.48;41.79
9059;BME280;4564;42.034;25.834;2023-05-03T07:36:40;100913.38;;;24.62;39.39
9059;BME280;4564;42.034;25.834;2023-05-03T07:39:06;100920.78;;;24.84;36.60
9059;BME280;4564;42.034;25.834;2023-05-03T07:41:33;100904.94;;;25.21;36.89
9059;BME280;4564;42.034;25.834;2023-05-03T07:44:01;100906.72;;;26.00;36.42
9059;BME280;4564;42.034;25.834;2023-05-03T07:46:27;100912.06;;;27.18;35.23
9059;BME280;4564;42.034;25.834;2023-05-03T07:48:59;100895.81;;;28.14;31.93
9059;BME280;4564;42.034;25.834;2023-05-03T07:51:25;100895.38;;;28.70;31.12
9059;BME280;4564;42.034;25.834;2023-05-03T07:53:53;100898.91;;;28.47;30.53
9059;BME280;4564;42.034;25.834;2023-05-03T07:56:20;100906.69;;;27.57;31.63
9059;BME280;4564;42.034;25.834;2023-05-03T07:58:46;100904.88;;;26.61;33.87
9059;BME280;4564;42.034;25.834;2023-05-03T08:01:14;100891.97;;;24.90;36.46
9059;BME280;4564;42.034;25.834;2023-05-03T08:03:41;100881.09;;;23.71;38.15
9059;BME280;4564;42.034;25.834;2023-05-03T08:06:08;100876.50;;;21.99;42.33
9059;BME280;4564;42.034;25.834;2023-05-03T08:08:35;100869.34;;;21.47;44.70
9059;BME280;4564;42.034;25.834;2023-05-03T08:11:02;100870.97;;;20.84;44.51
9059;BME280;4564;42.034;25.834;2023-05-03T08:13:29;100881.91;;;20.79;46.16
9059;BME280;4564;42.034;25.834;2023-05-03T08:15:55;100878.16;;;20.62;44.84
9059;BME280;4564;42.034;25.834;2023-05-03T08:18:23;100856.25;;;20.56;45.82
9059;BME280;4564;42.034;25.834;2023-05-03T08:20:51;100855.88;;;20.40;46.73
9059;BME280;4564;42.034;25.834;2023-05-03T08:23:17;100854.19;;;20.39;47.68
9059;BME280;4564;42.034;25.834;2023-05-03T08:25:44;100843.63;;;20.48;48.38
9059;BME280;4564;42.034;25.834;2023-05-03T08:28:10;100842.44;;;20.56;48.04
9059;BME280;4564;42.034;25.834;2023-05-03T08:30:37;100840.59;;;20.26;48.46
9059;BME280;4564;42.034;25.834;2023-05-03T08:33:04;100850.81;;;20.37;48.73
9059;BME280;4564;42.034;25.834;2023-05-03T08:35:32;100853.66;;;20.31;47.29
9059;BME280;4564;42.034;25.834;2023-05-03T08:37:58;100859.63;;;20.16;47.52
9059;BME280;4564;42.034;25.834;2023-05-03T08:40:25;100854.59;;;20.13;47.04
9059;BME280;4564;42.034;25.834;2023-05-03T08:42:52;100846.56;;;19.70;47.92
9059;BME280;4564;42.034;25.834;2023-05-03T08:45:20;100839.44;;;19.62;48.30
9059;BME280;4564;42.034;25.834;2023-05-03T08:47:51;100841.72;;;19.65;49.93
9059;BME280;4564;42.034;25.834;2023-05-03T08:50:18;100845.50;;;19.83;50.60
9059;BME280;4564;42.034;25.834;2023-05-03T08:52:46;100847.84;;;20.09;50.46
9059;BME280;4564;42.034;25.834;2023-05-03T08:55:13;100842.88;;;20.29;51.09
9059;BME280;4564;42.034;25.834;2023-05-03T08:57:40;100796.72;;;20.25;48.77
9059;BME280;4564;42.034;25.834;2023-05-03T09:00:06;100847.47;;;20.82;47.98
9059;BME280;4564;42.034;25.834;2023-05-03T09:02:35;100842.56;;;20.72;46.96
9059;BME280;4564;42.034;25.834;2023-05-03T09:05:04;100835.31;;;21.29;46.79
9059;BME280;4564;42.034;25.834;2023-05-03T09:07:31;100838.50;;;22.06;44.35
9059;BME280;4564;42.034;25.834;2023-05-03T09:09:59;100828.19;;;22.18;43.05
9059;BME280;4564;42.034;25.834;2023-05-03T09:12:32;100824.41;;;22.41;42.56
9059;BME280;4564;42.034;25.834;2023-05-03T09:14:59;100823.56;;;22.74;41.75
9059;BME280;4564;42.034;25.834;2023-05-03T09:17:27;100826.59;;;22.56;41.91
9059;BME280;4564;42.034;25.834;2023-05-03T09:19:54;100831.47;;;22.49;42.65
9059;BME280;4564;42.034;25.834;2023-05-03T09:22:21;100843.34;;;22.66;41.45
9059;BME280;4564;42.034;25.834;2023-05-03T09:24:51;100847.91;;;22.72;42.22
9059;BME280;4564;42.034;25.834;2023-05-03T09:27:19;100836.38;;;22.30;42.58
9059;BME280;4564;42.034;25.834;2023-05-03T09:29:47;100842.19;;;22.29;40.41
9059;BME280;4564;42.034;25.834;2023-05-03T09:32:13;100827.84;;;22.15;40.85
9059;BME280;4564;42.034;25.834;2023-05-03T09:34:41;100820.31;;;22.27;41.88
9059;BME280;4564;42.034;25.834;2023-05-03T09:37:08;100817.47;;;22.22;42.86
9059;BME280;4564;42.034;25.834;2023-05-03T09:39:34;100825.91;;;22.66;40.78
9059;BME280;4564;42.034;25.834;2023-05-03T09:42:09;100840.84;;;22.81;40.74
9059;BME280;4564;42.034;25.834;2023-05-03T09:44:40;100846.78;;;22.73;38.05
9059;BME280;4564;42.034;25.834;2023-05-03T09:47:07;100840.59;;;22.66;39.88
9059;BME280;4564;42.034;25.834;2023-05-03T09:49:34;100841.66;;;22.65;39.81
9059;BME280;4564;42.034;25.834;2023-05-03T09:52:01;100838.94;;;23.04;39.46
9059;BME280;4564;42.034;25.834;2023-05-03T09:54:28;100838.31;;;22.80;40.86
9059;BME280;4564;42.034;25.834;2023-05-03T09:56:56;100833.84;;;22.95;39.02
9059;BME280;4564;42.034;25.834;2023-05-03T09:59:23;100832.78;;;22.63;39.22
9059;BME280;4564;42.034;25.834;2023-05-03T10:01:51;100828.44;;;22.00;40.14
9059;BME280;4564;42.034;25.834;2023-05-03T10:04:19;100828.03;;;21.80;41.57
9059;BME280;4564;42.034;25.834;2023-05-03T10:06:49;100835.38;;;22.03;41.81
9059;BME280;4564;42.034;25.834;2023-05-03T10:09:21;100834.97;;;21.83;42.63
9059;BME280;4564;42.034;25.834;2023-05-03T10:11:51;100839.78;;;21.59;43.06
9059;BME280;4564;42.034;25.834;2023-05-03T10:14:17;100847.94;;;21.25;46.17
9059;BME280;4564;42.034;25.834;2023-05-03T10:16:45;100856.56;;;21.17;47.39
9059;BME280;4564;42.034;25.834;2023-05-03T10:19:14;100858.72;;;21.27;47.30
9059;BME280;4564;42.034;25.834;2023-05-03T10:21:53;100859.31;;;21.06;45.76
9059;BME280;4564;42.034;25.834;2023-05-03T10:24:21;100852.72;;;20.95;46.59
9059;BME280;4564;42.034;25.834;2023-05-03T10:26:48;100854.91;;;20.70;45.97
9059;BME280;4564;42.034;25.834;2023-05-03T10:32:01;100840.56;;;20.15;51.34
9059;BME280;4564;42.034;25.834;2023-05-03T10:34:30;100833.28;;;19.79;54.91
9059;BME280;4564;42.034;25.834;2023-05-03T10:36:59;100814.91;;;19.43;56.53
9059;BME280;4564;42.034;25.834;2023-05-03T10:39:26;100805.97;;;19.29;57.89
9059;BME280;4564;42.034;25.834;2023-05-03T10:41:57;100796.69;;;19.12;59.70
9059;BME280;4564;42.034;25.834;2023-05-03T10:44:25;100803.88;;;18.76;57.83
9059;BME280;4564;42.034;25.834;2023-05-03T10:46:52;100816.75;;;18.58;62.96
9059;BME280;4564;42.034;25.834;2023-05-03T10:49:20;100831.06;;;18.66;67.60
9059;BME280;4564;42.034;25.834;2023-05-03T10:51:48;100826.91;;;18.57;69.87
9059;BME280;4564;42.034;25.834;2023-05-03T10:54:15;100825.78;;;18.40;72.28
9059;BME280;4564;42.034;25.834;2023-05-03T10:56:47;100818.44;;;18.34;71.80
9059;BME280;4564;42.034;25.834;2023-05-03T10:59:13;100819.84;;;18.18;72.51
9059;BME280;4564;42.034;25.834;2023-05-03T11:01:40;100812.03;;;18.15;74.37
9059;BME280;4564;42.034;25.834;2023-05-03T11:04:08;100819.28;;;18.10;74.57
9059;BME280;4564;42.034;25.834;2023-05-03T11:06:36;100812.22;;;18.20;74.99
9059;BME280;4564;42.034;25.834;2023-05-03T11:09:07;100802.41;;;18.31;74.54
9059;BME280;4564;42.034;25.834;2023-05-03T11:11:35;100790.13;;;18.52;74.03
9059;BME280;4564;42.034;25.834;2023-05-03T11:14:03;100794.56;;;18.77;73.10
9059;BME280;4564;42.034;25.834;2023-05-03T11:16:30;100774.84;;;18.99;72.77
9059;BME280;4564;42.034;25.834;2023-05-03T11:18:58;100765.59;;;19.41;72.46
9059;BME280;4564;42.034;25.834;2023-05-03T11:21:24;100776.78;;;19.46;71.49
9059;BME280;4564;42.034;25.834;2023-05-03T11:23:51;100806.50;;;19.56;68.97
9059;BME280;4564;42.034;25.834;2023-05-03T11:26:19;100824.28;;;19.72;71.58
9059;BME280;4564;42.034;25.834;2023-05-03T11:28:50;100826.53;;;19.63;70.61
9059;BME280;4564;42.034;25.834;2023-05-03T11:31:17;100834.88;;;19.38;69.65
9059;BME280;4564;42.034;25.834;2023-05-03T11:33:43;100822.84;;;19.69;68.62
9059;BME280;4564;42.034;25.834;2023-05-03T11:36:10;100813.53;;;19.52;66.46
9059;BME280;4564;42.034;25.834;2023-05-03T11:38:37;100813.22;;;19.60;70.16
9059;BME280;4564;42.034;25.834;2023-05-03T11:41:10;100824.53;;;19.82;68.15
9059;BME280;4564;42.034;25.834;2023-05-03T11:43:40;100824.53;;;19.82;67.16
9059;BME280;4564;42.034;25.834;2023-05-03T11:46:07;100811.16;;;19.85;67.67
9059;BME280;4564;42.034;25.834;2023-05-03T11:48:34;100804.44;;;19.93;67.41
9059;BME280;4564;42.034;25.834;2023-05-03T11:51:05;100791.63;;;19.98;64.64
9059;BME280;4564;42.034;25.834;2023-05-03T11:53:32;100772.72;;;20.13;66.52
9059;BME280;4564;42.034;25.834;2023-05-03T11:55:58;100787.63;;;20.24;61.33
9059;BME280;4564;42.034;25.834;2023-05-03T11:58:26;100787.34;;;20.14;64.66
9059;BME280;4564;42.034;25.834;2023-05-03T12:00:54;100778.69;;;20.40;64.80
9059;BME280;4564;42.034;25.834;2023-05-03T12:03:21;100755.50;;;20.65;61.80
9059;BME280;4564;42.034;25.834;2023-05-03T12:05:49;100750.00;;;21.16;56.38
9059;BME280;4564;42.034;25.834;2023-05-03T12:08:16;100740.69;;;21.34;53.33
9059;BME280;4564;42.034;25.834;2023-05-03T12:10:43;100744.94;;;21.87;54.63
9059;BME280;4564;42.034;25.834;2023-05-03T12:13:10;100745.63;;;21.94;52.46
9059;BME280;4564;42.034;25.834;2023-05-03T12:15:37;100740.91;;;21.61;54.07
9059;BME280;4564;42.034;25.834;2023-05-03T12:18:06;100747.81;;;21.75;54.90
9059;BME280;4564;42.034;25.834;2023-05-03T12:20:34;100741.22;;;21.48;54.65
9059;BME280;4564;42.034;25.834;2023-05-03T12:23:01;100733.06;;;21.13;54.60
9059;BME280;4564;42.034;25.834;2023-05-03T12:25:29;100729.06;;;20.92;54.56
9059;BME280;4564;42.034;25.834;2023-05-03T12:27:56;100726.44;;;20.85;57.12
9059;BME280;4564;42.034;25.834;2023-05-03T12:30:23;100728.53;;;20.95;55.11
9059;BME280;4564;42.034;25.834;2023-05-03T12:32:49;100715.25;;;20.92;56.69
9059;BME280;4564;42.034;25.834;2023-05-03T12:35:18;100715.59;;;21.35;58.43
9059;BME280;4564;42.034;25.834;2023-05-03T12:37:45;100724.69;;;21.64;55.08
9059;BME280;4564;42.034;25.834;2023-05-03T12:40:12;100720.16;;;21.58;54.64
9059;BME280;4564;42.034;25.834;2023-05-03T12:42:39;100715.47;;;21.75;52.84
9059;BME280;4564;42.034;25.834;2023-05-03T12:45:06;100714.06;;;21.28;56.55
9059;BME280;4564;42.034;25.834;2023-05-03T12:47:33;100706.03;;;21.26;55.65
9059;BME280;4564;42.034;25.834;2023-05-03T12:50:01;100704.41;;;21.02;56.43
9059;BME280;4564;42.034;25.834;2023-05-03T12:52:29;100693.38;;;21.02;57.26
9059;BME280;4564;42.034;25.834;2023-05-03T12:54:56;100688.53;;;20.81;56.24
9059;BME280;4564;42.034;25.834;2023-05-03T12:57:23;100680.97;;;20.88;57.10
9059;BME280;4564;42.034;25.834;2023-05-03T12:59:49;100668.94;;;21.22;55.94
9059;BME280;4564;42.034;25.834;2023-05-03T13:02:17;100668.44;;;20.97;54.46